sensor_id;sensor_type;location;lat;lon;timestamp;P1;durP1;ratioP1;P2;durP2;ratioP2
70850;SDS011;58475;49.662;9.636;2023-02-28T00:02:14;6.90;;;3.50;;
70850;SDS011;58475;49.662;9.636;2023-02-28T00:04:42;6.25;;;3.25;;
70850;SDS011;58475;49.662;9.636;2023-02-28T00:07:08;5.90;;;3.08;;
70850;SDS011;58475;49.662;9.636;2023-02-28T00:09:33;7.63;;;3.15;;
70850;SDS011;58475;49.662;9.636;2023-02-28T00:11:59;6.85;;;3.47;;
70850;SDS011;58475;49.662;9.636;2023-02-28T00:14:24;6.50;;;2.95;;
70850;SDS011;58475;49.662;9.636;2023-02-28T00:16:50;5.43;;;3.10;;
70850;SDS011;58475;49.662;9.636;2023-02-28T00:19:15;6.00;;;3.30;;
70850;SDS011;58475;49.662;9.636;2023-02-28T00:21:40;6.53;;;3.00;;
70850;SDS011;58475;49.662;9.636;2023-02-28T00:24:06;5.63;;;3.13;;
70850;SDS011;58475;49.662;9.636;2023-02-28T00:26:32;5.93;;;3.35;;
70850;SDS011;58475;49.662;9.636;2023-02-28T00:28:57;7.38;;;3.40;;
70850;SDS011;58475;49.662;9.636;2023-02-28T00:31:23;6.50;;;3.25;;
70850;SDS011;58475;49.662;9.636;2023-02-28T00:33:48;5.20;;;3.13;;
70850;SDS011;58475;49.662;9.636;2023-02-28T00:36:14;8.93;;;3.72;;
70850;SDS011;58475;49.662;9.636;2023-02-28T00:38:40;8.60;;;3.80;;
70850;SDS011;58475;49.662;9.636;2023-02-28T00:41:06;5.63;;;3.30;;
70850;SDS011;58475;49.662;9.636;2023-02-28T00:43:36;6.60;;;3.38;;
70850;SDS011;58475;49.662;9.636;2023-02-28T00:46:03;6.20;;;3.60;;
70850;SDS011;58475;49.662;9.636;2023-02-28T00:48:29;8.00;;;3.28;;
70850;SDS011;58475;49.662;9.636;2023-02-28T00:50:54;5.40;;;3.58;;
70850;SDS011;58475;49.662;9.636;2023-02-28T00:53:20;6.95;;;3.50;;
70850;SDS011;58475;49.662;9.636;2023-02-28T00:55:45;5.90;;;3.50;;
70850;SDS011;58475;49.662;9.636;2023-02-28T00:58:11;5.93;;;3.28;;
70850;SDS011;58475;49.662;9.636;2023-02-28T01:00:36;6.97;;;3.55;;
70850;SDS011;58475;49.662;9.636;2023-02-28T01:03:01;7.60;;;3.70;;
70850;SDS011;58475;49.662;9.636;2023-02-28T01:05:27;6.72;;;3.22;;
70850;SDS011;58475;49.662;9.636;2023-02-28T01:07:52;6.35;;;3.28;;
70850;SDS011;58475;49.662;9.636;2023-02-28T01:10:18;6.70;;;3.35;;
70850;SDS011;58475;49.662;9.636;2023-02-28T01:12:43;6.63;;;3.55;;
70850;SDS011;58475;49.662;9.636;2023-02-28T01:15:10;7.63;;;3.50;;
70850;SDS011;58475;49.662;9.636;2023-02-28T01:17:36;6.25;;;3.35;;
70850;SDS011;58475;49.662;9.636;2023-02-28T01:20:02;7.43;;;3.35;;
70850;SDS011;58475;49.662;9.636;2023-02-28T01:22:28;7.20;;;3.67;;
70850;SDS011;58475;49.662;9.636;2023-02-28T01:24:53;7.38;;;3.60;;
70850;SDS011;58475;49.662;9.636;2023-02-28T01:27:19;7.50;;;3.78;;
70850;SDS011;58475;49.662;9.636;2023-02-28T01:29:44;5.90;;;3.42;;
70850;SDS011;58475;49.662;9.636;2023-02-28T01:32:10;7.97;;;3.80;;
70850;SDS011;58475;49.662;9.636;2023-02-28T01:34:35;8.55;;;4.00;;
70850;SDS011;58475;49.662;9.636;2023-02-28T01:37:02;8.82;;;3.17;;
70850;SDS011;58475;49.662;9.636;2023-02-28T01:39:28;6.57;;;3.70;;
70850;SDS011;58475;49.662;9.636;2023-02-28T01:41:55;7.07;;;3.50;;
70850;SDS011;58475;49.662;9.636;2023-02-28T01:47:31;7.60;;;3.50;;
70850;SDS011;58475;49.662;9.636;2023-02-28T01:50:00;6.72;;;3.42;;
70850;SDS011;58475;49.662;9.636;2023-02-28T01:52:29;9.13;;;3.85;;
70850;SDS011;58475;49.662;9.636;2023-02-28T01:54:56;6.60;;;3.50;;
70850;SDS011;58475;49.662;9.636;2023-02-28T01:57:27;9.82;;;3.22;;
70850;SDS011;58475;49.662;9.636;2023-02-28T02:02:24;6.80;;;3.60;;
70850;SDS011;58475;49.662;9.636;2023-02-28T02:04:53;13.37;;;3.73;;
70850;SDS011;58475;49.662;9.636;2023-02-28T02:07:21;7.30;;;3.85;;
70850;SDS011;58475;49.662;9.636;2023-02-28T02:09:49;6.07;;;3.60;;
70850;SDS011;58475;49.662;9.636;2023-02-28T02:12:20;9.10;;;3.92;;
70850;SDS011;58475;49.662;9.636;2023-02-28T02:15:00;7.70;;;3.75;;
70850;SDS011;58475;49.662;9.636;2023-02-28T02:17:38;6.88;;;3.88;;
70850;SDS011;58475;49.662;9.636;2023-02-28T02:20:16;7.10;;;3.55;;
70850;SDS011;58475;49.662;9.636;2023-02-28T02:28:41;7.75;;;4.18;;
70850;SDS011;58475;49.662;9.636;2023-02-28T02:34:16;10.98;;;4.03;;
70850;SDS011;58475;49.662;9.636;2023-02-28T02:36:47;6.33;;;3.37;;
70850;SDS011;58475;49.662;9.636;2023-02-28T02:42:21;6.95;;;3.45;;
70850;SDS011;58475;49.662;9.636;2023-02-28T02:44:55;6.70;;;3.47;;
70850;SDS011;58475;49.662;9.636;2023-02-28T02:47:26;8.52;;;3.92;;
70850;SDS011;58475;49.662;9.636;2023-02-28T02:49:56;9.40;;;3.58;;
70850;SDS011;58475;49.662;9.636;2023-02-28T02:52:30;8.18;;;4.38;;
70850;SDS011;58475;49.662;9.636;2023-02-28T02:54:59;8.27;;;3.80;;
70850;SDS011;58475;49.662;9.636;2023-02-28T02:57:32;8.10;;;4.20;;
70850;SDS011;58475;49.662;9.636;2023-02-28T03:00:03;6.65;;;3.67;;
70850;SDS011;58475;49.662;9.636;2023-02-28T03:04:59;7.80;;;3.75;;
70850;SDS011;58475;49.662;9.636;2023-02-28T03:07:27;7.67;;;4.20;;
70850;SDS011;58475;49.662;9.636;2023-02-28T03:09:56;7.65;;;4.03;;
70850;SDS011;58475;49.662;9.636;2023-02-28T03:12:23;12.13;;;4.13;;
70850;SDS011;58475;49.662;9.636;2023-02-28T03:23:18;7.83;;;3.93;;
70850;SDS011;58475;49.662;9.636;2023-02-28T03:25:51;11.10;;;4.78;;
70850;SDS011;58475;49.662;9.636;2023-02-28T03:33:47;9.57;;;4.35;;
70850;SDS011;58475;49.662;9.636;2023-02-28T03:36:38;8.67;;;4.33;;
70850;SDS011;58475;49.662;9.636;2023-02-28T03:39:11;7.73;;;3.90;;
70850;SDS011;58475;49.662;9.636;2023-02-28T03:44:18;7.87;;;4.50;;
70850;SDS011;58475;49.662;9.636;2023-02-28T03:49:58;11.57;;;4.87;;
70850;SDS011;58475;49.662;9.636;2023-02-28T03:52:42;9.80;;;4.50;;
70850;SDS011;58475;49.662;9.636;2023-02-28T03:55:15;8.30;;;4.22;;
70850;SDS011;58475;49.662;9.636;2023-02-28T04:00:30;10.23;;;4.90;;
70850;SDS011;58475;49.662;9.636;2023-02-28T04:03:00;7.85;;;4.35;;
70850;SDS011;58475;49.662;9.636;2023-02-28T04:05:26;9.40;;;5.03;;
70850;SDS011;58475;49.662;9.636;2023-02-28T04:07:52;9.77;;;5.30;;
70850;SDS011;58475;49.662;9.636;2023-02-28T04:10:19;8.73;;;4.87;;
70850;SDS011;58475;49.662;9.636;2023-02-28T04:12:44;9.33;;;4.97;;
70850;SDS011;58475;49.662;9.636;2023-02-28T04:15:10;9.97;;;5.27;;
70850;SDS011;58475;49.662;9.636;2023-02-28T04:17:36;12.77;;;5.25;;
70850;SDS011;58475;49.662;9.636;2023-02-28T04:20:02;10.87;;;5.30;;
70850;SDS011;58475;49.662;9.636;2023-02-28T04:22:28;8.20;;;4.60;;
70850;SDS011;58475;49.662;9.636;2023-02-28T04:24:54;11.03;;;5.57;;
70850;SDS011;58475;49.662;9.636;2023-02-28T04:27:19;9.77;;;5.17;;
70850;SDS011;58475;49.662;9.636;2023-02-28T04:29:45;11.53;;;5.53;;
70850;SDS011;58475;49.662;9.636;2023-02-28T04:32:11;11.10;;;5.18;;
70850;SDS011;58475;49.662;9.636;2023-02-28T04:34:37;9.33;;;5.20;;
70850;SDS011;58475;49.662;9.636;2023-02-28T04:37:02;10.37;;;5.60;;
70850;SDS011;58475;49.662;9.636;2023-02-28T04:39:28;13.25;;;5.88;;
70850;SDS011;58475;49.662;9.636;2023-02-28T04:41:54;13.43;;;6.67;;
70850;SDS011;58475;49.662;9.636;2023-02-28T04:44:20;14.80;;;6.50;;
70850;SDS011;58475;49.662;9.636;2023-02-28T04:46:47;12.13;;;6.10;;
70850;SDS011;58475;49.662;9.636;2023-02-28T04:49:13;12.20;;;6.20;;
70850;SDS011;58475;49.662;9.636;2023-02-28T04:51:39;14.10;;;5.97;;
70850;SDS011;58475;49.662;9.636;2023-02-28T04:54:05;11.93;;;5.83;;
70850;SDS011;58475;49.662;9.636;2023-02-28T04:56:31;12.10;;;5.90;;
70850;SDS011;58475;49.662;9.636;2023-02-28T04:58:56;15.33;;;6.10;;
70850;SDS011;58475;49.662;9.636;2023-02-28T05:01:24;10.87;;;5.93;;
70850;SDS011;58475;49.662;9.636;2023-02-28T05:03:52;14.35;;;6.50;;
70850;SDS011;58475;49.662;9.636;2023-02-28T05:06:18;13.85;;;6.00;;
70850;SDS011;58475;49.662;9.636;2023-02-28T05:08:45;13.43;;;6.30;;
70850;SDS011;58475;49.662;9.636;2023-02-28T05:11:33;12.57;;;6.17;;
70850;SDS011;58475;49.662;9.636;2023-02-28T05:14:05;11.50;;;5.87;;
70850;SDS011;58475;49.662;9.636;2023-02-28T05:16:32;12.80;;;6.97;;
70850;SDS011;58475;49.662;9.636;2023-02-28T05:18:58;12.23;;;6.07;;
70850;SDS011;58475;49.662;9.636;2023-02-28T05:21:31;13.55;;;5.75;;
70850;SDS011;58475;49.662;9.636;2023-02-28T05:23:58;12.67;;;6.60;;
70850;SDS011;58475;49.662;9.636;2023-02-28T05:26:33;11.80;;;6.03;;
70850;SDS011;58475;49.662;9.636;2023-02-28T05:29:00;12.90;;;6.20;;
70850;SDS011;58475;49.662;9.636;2023-02-28T05:31:25;13.10;;;6.67;;
70850;SDS011;58475;49.662;9.636;2023-02-28T05:33:51;15.47;;;6.67;;
70850;SDS011;58475;49.662;9.636;2023-02-28T05:36:16;14.30;;;6.63;;
70850;SDS011;58475;49.662;9.636;2023-02-28T05:38:42;12.10;;;5.87;;
70850;SDS011;58475;49.662;9.636;2023-02-28T05:41:08;11.63;;;6.23;;
70850;SDS011;58475;49.662;9.636;2023-02-28T05:43:34;19.87;;;6.70;;
70850;SDS011;58475;49.662;9.636;2023-02-28T05:46:04;13.37;;;7.10;;
70850;SDS011;58475;49.662;9.636;2023-02-28T05:48:34;14.07;;;6.30;;
70850;SDS011;58475;49.662;9.636;2023-02-28T05:51:01;14.67;;;7.07;;
70850;SDS011;58475;49.662;9.636;2023-02-28T05:53:27;16.20;;;7.20;;
70850;SDS011;58475;49.662;9.636;2023-02-28T05:55:53;13.60;;;7.23;;
70850;SDS011;58475;49.662;9.636;2023-02-28T05:58:19;13.10;;;6.80;;
70850;SDS011;58475;49.662;9.636;2023-02-28T06:00:45;13.70;;;6.57;;
70850;SDS011;58475;49.662;9.636;2023-02-28T06:03:10;11.67;;;6.37;;
70850;SDS011;58475;49.662;9.636;2023-02-28T06:05:36;14.27;;;7.33;;
70850;SDS011;58475;49.662;9.636;2023-02-28T06:08:01;14.17;;;6.57;;
70850;SDS011;58475;49.662;9.636;2023-02-28T06:10:27;12.52;;;7.38;;
70850;SDS011;58475;49.662;9.636;2023-02-28T06:12:52;13.70;;;7.10;;
70850;SDS011;58475;49.662;9.636;2023-02-28T06:15:17;15.73;;;7.57;;
70850;SDS011;58475;49.662;9.636;2023-02-28T06:17:43;13.60;;;6.87;;
70850;SDS011;58475;49.662;9.636;2023-02-28T06:20:10;14.50;;;7.20;;
70850;SDS011;58475;49.662;9.636;2023-02-28T06:22:38;16.50;;;7.33;;
70850;SDS011;58475;49.662;9.636;2023-02-28T06:25:04;13.30;;;6.93;;
70850;SDS011;58475;49.662;9.636;2023-02-28T06:27:31;14.07;;;7.93;;
70850;SDS011;58475;49.662;9.636;2023-02-28T06:29:57;15.73;;;7.90;;
70850;SDS011;58475;49.662;9.636;2023-02-28T06:32:22;18.13;;;7.75;;
70850;SDS011;58475;49.662;9.636;2023-02-28T06:34:48;15.25;;;7.45;;
70850;SDS011;58475;49.662;9.636;2023-02-28T06:37:14;16.17;;;8.05;;
70850;SDS011;58475;49.662;9.636;2023-02-28T06:39:39;13.93;;;7.57;;
70850;SDS011;58475;49.662;9.636;2023-02-28T06:42:04;17.27;;;8.03;;
70850;SDS011;58475;49.662;9.636;2023-02-28T06:44:30;13.50;;;7.55;;
70850;SDS011;58475;49.662;9.636;2023-02-28T06:47:00;14.63;;;7.83;;
70850;SDS011;58475;49.662;9.636;2023-02-28T06:49:30;15.73;;;8.27;;
70850;SDS011;58475;49.662;9.636;2023-02-28T06:51:56;17.52;;;8.07;;
70850;SDS011;58475;49.662;9.636;2023-02-28T06:54:22;15.55;;;7.80;;
70850;SDS011;58475;49.662;9.636;2023-02-28T06:56:47;14.07;;;7.47;;
70850;SDS011;58475;49.662;9.636;2023-02-28T06:59:13;17.70;;;8.48;;
70850;SDS011;58475;49.662;9.636;2023-02-28T07:01:38;18.15;;;8.45;;
70850;SDS011;58475;49.662;9.636;2023-02-28T07:04:04;19.80;;;8.90;;
70850;SDS011;58475;49.662;9.636;2023-02-28T07:06:30;16.45;;;7.95;;
70850;SDS011;58475;49.662;9.636;2023-02-28T07:08:56;20.07;;;9.03;;
70850;SDS011;58475;49.662;9.636;2023-02-28T07:11:22;21.20;;;8.40;;
70850;SDS011;58475;49.662;9.636;2023-02-28T07:13:50;16.37;;;8.33;;
70850;SDS011;58475;49.662;9.636;2023-02-28T07:16:17;15.35;;;8.15;;
70850;SDS011;58475;49.662;9.636;2023-02-28T07:18:43;17.07;;;9.03;;
70850;SDS011;58475;49.662;9.636;2023-02-28T07:21:09;15.77;;;7.72;;
70850;SDS011;58475;49.662;9.636;2023-02-28T07:23:35;16.13;;;8.70;;
70850;SDS011;58475;49.662;9.636;2023-02-28T07:26:03;18.50;;;8.95;;
70850;SDS011;58475;49.662;9.636;2023-02-28T07:28:29;18.02;;;9.15;;
70850;SDS011;58475;49.662;9.636;2023-02-28T07:30:54;18.17;;;9.48;;
70850;SDS011;58475;49.662;9.636;2023-02-28T07:33:20;16.37;;;8.07;;
70850;SDS011;58475;49.662;9.636;2023-02-28T07:35:45;16.90;;;8.00;;
70850;SDS011;58475;49.662;9.636;2023-02-28T07:38:10;18.63;;;9.05;;
70850;SDS011;58475;49.662;9.636;2023-02-28T07:40:38;17.48;;;8.63;;
70850;SDS011;58475;49.662;9.636;2023-02-28T07:43:04;17.23;;;8.45;;
70850;SDS011;58475;49.662;9.636;2023-02-28T07:45:29;16.63;;;8.60;;
70850;SDS011;58475;49.662;9.636;2023-02-28T07:47:56;16.77;;;8.50;;
70850;SDS011;58475;49.662;9.636;2023-02-28T07:50:22;19.43;;;9.27;;
70850;SDS011;58475;49.662;9.636;2023-02-28T07:52:47;19.45;;;9.07;;
70850;SDS011;58475;49.662;9.636;2023-02-28T07:55:13;17.05;;;8.57;;
70850;SDS011;58475;49.662;9.636;2023-02-28T07:57:39;18.73;;;9.97;;
70850;SDS011;58475;49.662;9.636;2023-02-28T08:00:05;18.35;;;8.43;;
70850;SDS011;58475;49.662;9.636;2023-02-28T08:02:37;15.43;;;9.02;;
70850;SDS011;58475;49.662;9.636;2023-02-28T08:05:02;16.75;;;8.68;;
70850;SDS011;58475;49.662;9.636;2023-02-28T08:07:28;17.42;;;9.10;;
70850;SDS011;58475;49.662;9.636;2023-02-28T08:09:53;16.85;;;9.05;;
70850;SDS011;58475;49.662;9.636;2023-02-28T08:12:19;20.20;;;9.45;;
70850;SDS011;58475;49.662;9.636;2023-02-28T08:14:44;18.45;;;9.50;;
70850;SDS011;58475;49.662;9.636;2023-02-28T08:17:10;14.73;;;8.43;;
70850;SDS011;58475;49.662;9.636;2023-02-28T08:19:36;15.00;;;8.27;;
70850;SDS011;58475;49.662;9.636;2023-02-28T08:22:01;21.58;;;9.88;;
70850;SDS011;58475;49.662;9.636;2023-02-28T08:24:27;21.52;;;9.07;;
70850;SDS011;58475;49.662;9.636;2023-02-28T08:26:52;20.15;;;10.07;;
70850;SDS011;58475;49.662;9.636;2023-02-28T08:29:18;24.90;;;9.48;;
70850;SDS011;58475;49.662;9.636;2023-02-28T08:31:43;19.42;;;9.38;;
70850;SDS011;58475;49.662;9.636;2023-02-28T08:34:09;18.48;;;9.68;;
70850;SDS011;58475;49.662;9.636;2023-02-28T08:36:37;16.33;;;8.93;;
70850;SDS011;58475;49.662;9.636;2023-02-28T08:39:03;20.67;;;9.52;;
70850;SDS011;58475;49.662;9.636;2023-02-28T08:41:29;17.88;;;8.93;;
70850;SDS011;58475;49.662;9.636;2023-02-28T08:43:54;18.20;;;9.23;;
70850;SDS011;58475;49.662;9.636;2023-02-28T08:46:20;20.65;;;10.10;;
70850;SDS011;58475;49.662;9.636;2023-02-28T08:48:46;16.00;;;9.05;;
70850;SDS011;58475;49.662;9.636;2023-02-28T08:51:15;19.08;;;9.82;;
70850;SDS011;58475;49.662;9.636;2023-02-28T08:53:43;17.52;;;9.55;;
70850;SDS011;58475;49.662;9.636;2023-02-28T08:56:10;19.75;;;9.95;;
70850;SDS011;58475;49.662;9.636;2023-02-28T08:58:37;20.02;;;9.02;;
70850;SDS011;58475;49.662;9.636;2023-02-28T09:01:12;18.85;;;9.02;;
70850;SDS011;58475;49.662;9.636;2023-02-28T09:03:41;18.80;;;10.30;;
70850;SDS011;58475;49.662;9.636;2023-02-28T09:06:08;17.33;;;9.68;;
70850;SDS011;58475;49.662;9.636;2023-02-28T09:08:34;17.13;;;9.70;;
70850;SDS011;58475;49.662;9.636;2023-02-28T09:11:00;18.95;;;10.18;;
70850;SDS011;58475;49.662;9.636;2023-02-28T09:13:27;17.30;;;9.30;;
70850;SDS011;58475;49.662;9.636;2023-02-28T09:15:53;18.83;;;9.05;;
70850;SDS011;58475;49.662;9.636;2023-02-28T09:18:19;21.08;;;10.25;;
70850;SDS011;58475;49.662;9.636;2023-02-28T09:20:45;19.20;;;10.52;;
70850;SDS011;58475;49.662;9.636;2023-02-28T09:23:11;18.27;;;10.18;;
70850;SDS011;58475;49.662;9.636;2023-02-28T09:25:37;20.67;;;10.90;;
70850;SDS011;58475;49.662;9.636;2023-02-28T09:28:10;19.25;;;9.90;;
70850;SDS011;58475;49.662;9.636;2023-02-28T09:30:36;22.08;;;9.88;;
70850;SDS011;58475;49.662;9.636;2023-02-28T09:33:02;20.05;;;10.05;;
70850;SDS011;58475;49.662;9.636;2023-02-28T09:35:27;21.17;;;9.82;;
70850;SDS011;58475;49.662;9.636;2023-02-28T09:37:53;22.92;;;10.43;;
70850;SDS011;58475;49.662;9.636;2023-02-28T09:40:19;24.17;;;10.70;;
70850;SDS011;58475;49.662;9.636;2023-02-28T09:42:48;18.73;;;10.25;;
70850;SDS011;58475;49.662;9.636;2023-02-28T09:47:54;18.90;;;9.27;;
70850;SDS011;58475;49.662;9.636;2023-02-28T09:52:52;18.33;;;9.57;;
70850;SDS011;58475;49.662;9.636;2023-02-28T09:55:20;21.27;;;10.07;;
70850;SDS011;58475;49.662;9.636;2023-02-28T10:10:02;19.45;;;10.43;;
70850;SDS011;58475;49.662;9.636;2023-02-28T10:12:37;18.02;;;9.75;;
70850;SDS011;58475;49.662;9.636;2023-02-28T10:15:07;18.98;;;10.38;;
70850;SDS011;58475;49.662;9.636;2023-02-28T10:17:40;17.75;;;9.52;;
70850;SDS011;58475;49.662;9.636;2023-02-28T10:20:10;18.25;;;9.95;;
70850;SDS011;58475;49.662;9.636;2023-02-28T10:25:37;22.65;;;10.43;;
70850;SDS011;58475;49.662;9.636;2023-02-28T10:28:13;18.38;;;10.77;;
70850;SDS011;58475;49.662;9.636;2023-02-28T10:30:44;20.63;;;10.75;;
70850;SDS011;58475;49.662;9.636;2023-02-28T10:33:25;19.17;;;11.02;;
70850;SDS011;58475;49.662;9.636;2023-02-28T10:35:55;18.52;;;9.80;;
70850;SDS011;58475;49.662;9.636;2023-02-28T10:38:25;18.88;;;10.05;;
70850;SDS011;58475;49.662;9.636;2023-02-28T10:40:57;21.33;;;10.52;;
70850;SDS011;58475;49.662;9.636;2023-02-28T10:43:32;17.90;;;10.05;;
70850;SDS011;58475;49.662;9.636;2023-02-28T10:46:02;18.17;;;10.57;;
70850;SDS011;58475;49.662;9.636;2023-02-28T10:51:17;18.17;;;10.27;;
70850;SDS011;58475;49.662;9.636;2023-02-28T10:53:51;19.75;;;9.82;;
70850;SDS011;58475;49.662;9.636;2023-02-28T10:56:22;18.45;;;9.80;;
70850;SDS011;58475;49.662;9.636;2023-02-28T10:58:57;18.75;;;9.85;;
70850;SDS011;58475;49.662;9.636;2023-02-28T11:06:56;18.27;;;10.80;;
70850;SDS011;58475;49.662;9.636;2023-02-28T11:09:33;18.95;;;10.73;;
70850;SDS011;58475;49.662;9.636;2023-02-28T11:12:01;18.50;;;10.48;;
70850;SDS011;58475;49.662;9.636;2023-02-28T11:14:29;18.40;;;10.93;;
70850;SDS011;58475;49.662;9.636;2023-02-28T11:17:02;18.92;;;10.55;;
70850;SDS011;58475;49.662;9.636;2023-02-28T11:19:39;20.27;;;10.18;;
70850;SDS011;58475;49.662;9.636;2023-02-28T11:22:10;20.02;;;9.63;;
70850;SDS011;58475;49.662;9.636;2023-02-28T11:24:44;22.25;;;11.20;;
70850;SDS011;58475;49.662;9.636;2023-02-28T11:29:56;19.38;;;10.88;;
70850;SDS011;58475;49.662;9.636;2023-02-28T11:32:29;23.10;;;11.20;;
70850;SDS011;58475;49.662;9.636;2023-02-28T11:35:00;23.88;;;11.38;;
70850;SDS011;58475;49.662;9.636;2023-02-28T11:37:26;21.90;;;10.45;;
70850;SDS011;58475;49.662;9.636;2023-02-28T11:39:52;20.45;;;10.50;;
70850;SDS011;58475;49.662;9.636;2023-02-28T11:53:02;19.83;;;10.52;;
70850;SDS011;58475;49.662;9.636;2023-02-28T11:55:36;18.63;;;10.52;;
70850;SDS011;58475;49.662;9.636;2023-02-28T12:17:51;20.33;;;11.23;;
70850;SDS011;58475;49.662;9.636;2023-02-28T12:20:38;20.55;;;11.52;;
70850;SDS011;58475;49.662;9.636;2023-02-28T12:23:17;18.83;;;10.75;;
70850;SDS011;58475;49.662;9.636;2023-02-28T12:26:02;18.60;;;10.70;;
70850;SDS011;58475;49.662;9.636;2023-02-28T12:28:35;21.98;;;11.30;;
70850;SDS011;58475;49.662;9.636;2023-02-28T12:31:18;20.25;;;11.20;;
70850;SDS011;58475;49.662;9.636;2023-02-28T12:36:45;20.40;;;11.05;;
70850;SDS011;58475;49.662;9.636;2023-02-28T12:39:33;18.45;;;10.48;;
70850;SDS011;58475;49.662;9.636;2023-02-28T12:42:04;17.77;;;10.43;;
70850;SDS011;58475;49.662;9.636;2023-02-28T12:47:23;21.70;;;11.80;;
70850;SDS011;58475;49.662;9.636;2023-02-28T12:49:50;21.90;;;11.45;;
70850;SDS011;58475;49.662;9.636;2023-02-28T12:52:30;20.80;;;11.27;;
70850;SDS011;58475;49.662;9.636;2023-02-28T13:00:04;21.58;;;10.95;;
70850;SDS011;58475;49.662;9.636;2023-02-28T13:10:38;20.83;;;10.82;;
70850;SDS011;58475;49.662;9.636;2023-02-28T13:13:03;18.33;;;10.50;;
70850;SDS011;58475;49.662;9.636;2023-02-28T13:15:29;18.48;;;11.27;;
70850;SDS011;58475;49.662;9.636;2023-02-28T13:17:56;19.33;;;11.10;;
70850;SDS011;58475;49.662;9.636;2023-02-28T13:20:25;19.38;;;10.75;;
70850;SDS011;58475;49.662;9.636;2023-02-28T13:22:59;19.77;;;10.95;;
70850;SDS011;58475;49.662;9.636;2023-02-28T13:27:58;19.73;;;10.43;;
70850;SDS011;58475;49.662;9.636;2023-02-28T13:33:30;18.35;;;10.45;;
70850;SDS011;58475;49.662;9.636;2023-02-28T13:38:47;17.98;;;10.32;;
70850;SDS011;58475;49.662;9.636;2023-02-28T13:47:42;19.73;;;10.23;;
70850;SDS011;58475;49.662;9.636;2023-02-28T14:06:55;18.38;;;10.80;;
70850;SDS011;58475;49.662;9.636;2023-02-28T14:09:26;17.15;;;9.98;;
70850;SDS011;58475;49.662;9.636;2023-02-28T14:11:54;18.25;;;9.38;;
70850;SDS011;58475;49.662;9.636;2023-02-28T14:17:07;16.88;;;9.63;;
70850;SDS011;58475;49.662;9.636;2023-02-28T14:19:37;16.45;;;9.80;;
70850;SDS011;58475;49.662;9.636;2023-02-28T14:37:56;16.27;;;9.60;;
70850;SDS011;58475;49.662;9.636;2023-02-28T14:40:27;15.93;;;9.32;;
70850;SDS011;58475;49.662;9.636;2023-02-28T14:42:59;16.50;;;9.13;;
70850;SDS011;58475;49.662;9.636;2023-02-28T14:45:27;17.15;;;9.15;;
70850;SDS011;58475;49.662;9.636;2023-02-28T14:47:55;16.88;;;9.63;;
70850;SDS011;58475;49.662;9.636;2023-02-28T14:50:32;17.02;;;9.15;;
70850;SDS011;58475;49.662;9.636;2023-02-28T14:53:00;16.38;;;8.55;;
70850;SDS011;58475;49.662;9.636;2023-02-28T14:55:30;14.77;;;8.80;;
70850;SDS011;58475;49.662;9.636;2023-02-28T14:57:58;19.50;;;9.52;;
70850;SDS011;58475;49.662;9.636;2023-02-28T15:00:29;16.77;;;9.15;;
70850;SDS011;58475;49.662;9.636;2023-02-28T15:02:57;14.65;;;8.57;;
70850;SDS011;58475;49.662;9.636;2023-02-28T15:05:33;16.65;;;9.50;;
70850;SDS011;58475;49.662;9.636;2023-02-28T15:08:04;15.05;;;8.73;;
70850;SDS011;58475;49.662;9.636;2023-02-28T15:10:42;15.25;;;8.82;;
70850;SDS011;58475;49.662;9.636;2023-02-28T15:13:13;14.18;;;8.13;;
70850;SDS011;58475;49.662;9.636;2023-02-28T15:15:45;13.73;;;8.50;;
70850;SDS011;58475;49.662;9.636;2023-02-28T15:23:16;16.58;;;8.10;;
70850;SDS011;58475;49.662;9.636;2023-02-28T15:25:44;15.23;;;7.90;;
70850;SDS011;58475;49.662;9.636;2023-02-28T15:28:12;13.82;;;8.20;;
70850;SDS011;58475;49.662;9.636;2023-02-28T15:30:51;16.33;;;8.60;;
70850;SDS011;58475;49.662;9.636;2023-02-28T15:35:46;15.82;;;9.15;;
70850;SDS011;58475;49.662;9.636;2023-02-28T15:40:55;15.13;;;8.68;;
70850;SDS011;58475;49.662;9.636;2023-02-28T15:45:56;16.33;;;8.25;;
70850;SDS011;58475;49.662;9.636;2023-02-28T15:48:42;13.93;;;7.47;;
70850;SDS011;58475;49.662;9.636;2023-02-28T15:51:19;12.98;;;7.72;;
70850;SDS011;58475;49.662;9.636;2023-02-28T15:53:48;14.75;;;8.38;;
70850;SDS011;58475;49.662;9.636;2023-02-28T15:56:26;14.93;;;7.88;;
70850;SDS011;58475;49.662;9.636;2023-02-28T15:58:57;14.65;;;7.75;;
70850;SDS011;58475;49.662;9.636;2023-02-28T16:03:55;15.00;;;7.57;;
70850;SDS011;58475;49.662;9.636;2023-02-28T16:06:26;14.07;;;7.65;;
70850;SDS011;58475;49.662;9.636;2023-02-28T16:08:58;12.93;;;7.15;;
70850;SDS011;58475;49.662;9.636;2023-02-28T16:11:23;12.73;;;7.25;;
70850;SDS011;58475;49.662;9.636;2023-02-28T16:13:49;14.68;;;7.55;;
70850;SDS011;58475;49.662;9.636;2023-02-28T16:16:20;14.02;;;7.90;;
70850;SDS011;58475;49.662;9.636;2023-02-28T16:21:13;15.60;;;7.47;;
70850;SDS011;58475;49.662;9.636;2023-02-28T16:23:38;13.85;;;7.50;;
70850;SDS011;58475;49.662;9.636;2023-02-28T16:26:04;19.23;;;8.18;;
70850;SDS011;58475;49.662;9.636;2023-02-28T16:28:32;21.20;;;8.18;;
70850;SDS011;58475;49.662;9.636;2023-02-28T16:31:00;15.63;;;7.40;;
70850;SDS011;58475;49.662;9.636;2023-02-28T16:33:28;15.15;;;7.72;;
70850;SDS011;58475;49.662;9.636;2023-02-28T16:35:54;17.45;;;8.35;;
70850;SDS011;58475;49.662;9.636;2023-02-28T16:38:20;18.58;;;7.88;;
70850;SDS011;58475;49.662;9.636;2023-02-28T16:43:54;17.70;;;8.00;;
70850;SDS011;58475;49.662;9.636;2023-02-28T16:46:24;16.67;;;7.35;;
70850;SDS011;58475;49.662;9.636;2023-02-28T16:51:20;17.02;;;7.72;;
70850;SDS011;58475;49.662;9.636;2023-02-28T16:53:45;14.18;;;8.00;;
70850;SDS011;58475;49.662;9.636;2023-02-28T16:56:15;14.38;;;7.78;;
70850;SDS011;58475;49.662;9.636;2023-02-28T16:58:45;14.07;;;7.53;;
70850;SDS011;58475;49.662;9.636;2023-02-28T17:01:11;16.30;;;8.10;;
70850;SDS011;58475;49.662;9.636;2023-02-28T17:03:37;13.48;;;7.50;;
70850;SDS011;58475;49.662;9.636;2023-02-28T17:06:03;13.45;;;8.00;;
70850;SDS011;58475;49.662;9.636;2023-02-28T17:08:29;17.65;;;7.68;;
70850;SDS011;58475;49.662;9.636;2023-02-28T17:10:57;15.90;;;8.30;;
70850;SDS011;58475;49.662;9.636;2023-02-28T17:13:22;13.77;;;8.15;;
70850;SDS011;58475;49.662;9.636;2023-02-28T17:15:48;14.20;;;7.63;;
70850;SDS011;58475;49.662;9.636;2023-02-28T17:18:14;14.68;;;7.72;;
70850;SDS011;58475;49.662;9.636;2023-02-28T17:20:41;16.58;;;8.32;;
70850;SDS011;58475;49.662;9.636;2023-02-28T17:23:07;17.42;;;8.05;;
70850;SDS011;58475;49.662;9.636;2023-02-28T17:25:33;13.90;;;8.00;;
70850;SDS011;58475;49.662;9.636;2023-02-28T17:27:58;14.32;;;8.35;;
70850;SDS011;58475;49.662;9.636;2023-02-28T17:30:25;15.40;;;8.50;;
70850;SDS011;58475;49.662;9.636;2023-02-28T17:32:52;14.52;;;8.55;;
70850;SDS011;58475;49.662;9.636;2023-02-28T17:35:18;15.73;;;8.25;;
70850;SDS011;58475;49.662;9.636;2023-02-28T17:37:45;15.32;;;8.13;;
70850;SDS011;58475;49.662;9.636;2023-02-28T17:40:14;14.13;;;7.82;;
70850;SDS011;58475;49.662;9.636;2023-02-28T17:42:42;19.48;;;8.70;;
70850;SDS011;58475;49.662;9.636;2023-02-28T17:45:08;14.98;;;8.50;;
70850;SDS011;58475;49.662;9.636;2023-02-28T17:47:33;14.23;;;8.40;;
70850;SDS011;58475;49.662;9.636;2023-02-28T17:49:59;16.17;;;9.07;;
70850;SDS011;58475;49.662;9.636;2023-02-28T17:52:24;16.88;;;8.85;;
70850;SDS011;58475;49.662;9.636;2023-02-28T17:54:50;14.75;;;8.38;;
70850;SDS011;58475;49.662;9.636;2023-02-28T17:57:15;16.83;;;8.77;;
70850;SDS011;58475;49.662;9.636;2023-02-28T17:59:41;14.57;;;8.75;;